createdAt,value
2022-11-25T00:01:35.047Z,6.93
2022-11-25T00:06:36.816Z,6.80
2022-11-25T00:11:41.262Z,6.78
2022-11-25T00:16:47.945Z,6.78
2022-11-25T00:21:50.183Z,6.80
2022-11-25T00:26:52.030Z,6.78
2022-11-25T00:31:53.757Z,6.93
2022-11-25T00:36:55.396Z,6.87
2022-11-25T00:41:58.734Z,6.98
2022-11-25T00:47:00.818Z,7.15
2022-11-25T00:52:06.141Z,7.05
2022-11-25T00:57:07.835Z,7.04
2022-11-25T01:02:11.683Z,7.13
2022-11-25T01:07:14.016Z,7.58
2022-11-25T01:12:15.713Z,7.84
2022-11-25T01:17:20.278Z,7.90
2022-11-25T01:22:22.582Z,7.90
2022-11-25T01:27:24.222Z,7.87
2022-11-25T01:32:25.762Z,7.83
2022-11-25T01:37:27.374Z,7.75
2022-11-25T01:42:30.889Z,7.75
2022-11-25T01:47:33.190Z,7.78
2022-11-25T01:52:37.879Z,8.01
2022-11-25T01:58:01.704Z,8.12
2022-11-25T02:03:03.850Z,8.30
2022-11-25T02:08:07.056Z,8.47
2022-11-25T02:13:11.933Z,8.62
2022-11-25T02:18:13.528Z,8.72
2022-11-25T02:23:27.521Z,8.85
2022-11-25T02:28:32.376Z,9.04
2022-11-25T02:33:37.124Z,9.10
2022-11-25T02:38:49.376Z,9.18
2022-11-25T02:43:51.626Z,9.32
2022-11-25T02:49:12.238Z,9.37
2022-11-25T02:54:17.038Z,9.37
2022-11-25T02:59:18.662Z,9.37
2022-11-25T03:04:21.350Z,9.34
2022-11-25T03:09:23.073Z,9.46
2022-11-25T03:14:24.900Z,9.55
2022-11-25T03:19:26.764Z,9.64
2022-11-25T03:24:28.491Z,9.62
2022-11-25T03:29:30.311Z,9.63
2022-11-25T03:34:32.955Z,9.52
2022-11-25T03:39:35.373Z,9.49
2022-11-25T03:44:37.556Z,9.32
2022-11-25T03:49:39.538Z,9.44
2022-11-25T03:54:42.177Z,9.38
2022-11-25T03:59:58.949Z,9.42
2022-11-25T04:05:03.562Z,9.43
2022-11-25T04:10:06.073Z,9.43
2022-11-25T04:15:09.652Z,9.30
2022-11-25T04:20:13.268Z,9.20
2022-11-25T04:25:17.659Z,9.16
2022-11-25T04:30:19.497Z,9.12
2022-11-25T04:35:21.182Z,9.14
2022-11-25T04:40:27.113Z,9.02
2022-11-25T04:46:13.171Z,8.84
2022-11-25T04:51:11.058Z,8.69
2022-11-25T04:56:18.956Z,8.70
2022-11-25T05:01:21.694Z,8.64
2022-11-25T05:06:26.515Z,8.56
2022-11-25T05:11:29.199Z,8.55
2022-11-25T05:16:31.392Z,8.55
2022-11-25T05:21:36.605Z,8.56
2022-11-25T05:26:38.533Z,8.55
2022-11-25T05:31:40.670Z,8.55
2022-11-25T05:36:42.453Z,8.52
2022-11-25T05:41:44.585Z,8.49
2022-11-25T05:46:46.389Z,8.45
2022-11-25T05:51:48.446Z,8.39
2022-11-25T05:56:50.497Z,8.40
2022-11-25T06:02:18.077Z,8.40
2022-11-25T06:07:20.036Z,8.37
2022-11-25T06:12:24.030Z,8.37
2022-11-25T06:17:25.630Z,8.45
2022-11-25T06:22:38.736Z,8.45
2022-11-25T06:28:04.954Z,8.45
2022-11-25T06:33:02.438Z,8.46
2022-11-25T06:38:04.241Z,8.41
2022-11-25T06:43:05.841Z,8.47
2022-11-25T06:48:08.716Z,8.52
2022-11-25T06:53:10.249Z,8.50
2022-11-25T06:58:34.294Z,8.51
2022-11-25T07:03:34.011Z,8.49
2022-11-25T07:08:35.747Z,8.48
2022-11-25T07:13:37.487Z,8.46
2022-11-25T07:18:39.919Z,8.45
2022-11-25T07:23:44.136Z,8.39
2022-11-25T07:28:45.947Z,8.16
2022-11-25T07:33:47.803Z,8.00
2022-11-25T07:38:49.731Z,7.83
2022-11-25T07:43:54.095Z,7.62
2022-11-25T07:48:59.597Z,7.54
2022-11-25T07:54:03.443Z,7.55
2022-11-25T07:59:08.515Z,7.68
2022-11-25T08:04:18.096Z,8.07
2022-11-25T08:09:23.831Z,8.34
2022-11-25T08:14:25.640Z,8.35
2022-11-25T08:19:31.415Z,8.38
2022-11-25T08:24:33.243Z,8.46
2022-11-25T08:29:35.165Z,9.09
2022-11-25T08:34:37.154Z,9.91
2022-11-25T08:39:55.736Z,10.65
2022-11-25T08:44:57.774Z,11.15
2022-11-25T08:49:59.432Z,11.15
2022-11-25T08:55:01.038Z,11.53
2022-11-25T09:00:04.994Z,11.51
2022-11-25T09:05:06.730Z,11.67
2022-11-25T09:10:13.653Z,12.12
2022-11-25T09:15:16.086Z,12.58
2022-11-25T09:20:17.790Z,12.80
2022-11-25T09:25:21.069Z,13.28
2022-11-25T09:30:24.183Z,13.31
2022-11-25T09:35:26.543Z,13.55
2022-11-25T09:40:44.466Z,13.52
2022-11-25T09:45:52.113Z,13.70
2022-11-25T09:51:24.522Z,13.26
2022-11-25T09:56:42.018Z,12.85
2022-11-25T10:01:59.617Z,13.11
2022-11-25T10:07:03.899Z,13.23
2022-11-25T10:12:22.646Z,14.05
2022-11-25T10:17:42.067Z,14.24
2022-11-25T10:22:46.069Z,14.17
2022-11-25T10:28:16.752Z,14.45
2022-11-25T10:33:22.559Z,14.60
2022-11-25T10:38:50.225Z,14.55
2022-11-25T10:43:51.919Z,14.63
2022-11-25T10:48:56.194Z,14.88
2022-11-25T10:54:22.741Z,15.00
2022-11-25T10:59:39.890Z,14.45
2022-11-25T11:05:15.305Z,14.45
2022-11-25T11:10:22.434Z,14.50
2022-11-25T11:15:31.434Z,14.11
2022-11-25T11:20:34.192Z,14.45
2022-11-25T11:25:39.148Z,14.55
2022-11-25T11:30:55.693Z,14.22
2022-11-25T11:36:12.366Z,14.02
2022-11-25T11:41:19.476Z,15.44
2022-11-25T11:46:43.010Z,14.86
2022-11-25T11:51:44.582Z,14.91
2022-11-25T11:57:12.365Z,14.27
2022-11-25T12:02:29.280Z,13.88
2022-11-25T12:07:52.728Z,13.48
2022-11-25T12:13:15.357Z,13.46
2022-11-25T12:18:35.476Z,13.66
2022-11-25T12:23:43.089Z,13.86
2022-11-25T12:29:01.079Z,14.26
2022-11-25T12:34:11.981Z,15.05
2022-11-25T12:39:37.812Z,15.05
2022-11-25T12:45:02.754Z,14.80
2022-11-25T12:50:04.998Z,14.40
2022-11-25T12:55:09.569Z,14.55
2022-11-25T13:00:42.249Z,14.36
2022-11-25T13:05:53.164Z,14.41
2022-11-25T13:11:32.767Z,15.03
2022-11-25T13:16:35.528Z,14.56
2022-11-25T13:21:54.381Z,14.09
2022-11-25T13:26:56.003Z,14.19
2022-11-25T13:32:23.600Z,13.98
2022-11-25T13:37:38.691Z,14.10
2022-11-25T13:42:44.581Z,13.91
2022-11-25T13:47:48.851Z,14.36
2022-11-25T13:53:07.352Z,14.58
2022-11-25T13:58:11.979Z,14.22
2022-11-25T14:03:19.636Z,14.09
2022-11-25T14:08:45.157Z,14.01
2022-11-25T14:14:11.716Z,13.77
2022-11-25T14:19:50.831Z,13.51
2022-11-25T14:24:51.442Z,13.46
2022-11-25T14:29:59.176Z,13.39
2022-11-25T14:35:10.113Z,13.38
2022-11-25T14:40:36.460Z,13.32
2022-11-25T14:45:38.364Z,13.26
2022-11-25T14:50:41.532Z,13.06
2022-11-25T14:55:48.631Z,13.07
2022-11-25T15:01:01.178Z,13.01
2022-11-25T15:06:06.598Z,12.67
2022-11-25T15:11:34.945Z,12.53
2022-11-25T15:16:42.152Z,12.44
2022-11-25T15:22:20.674Z,12.64
2022-11-25T15:27:22.399Z,12.71
2022-11-25T15:32:33.887Z,12.65
2022-11-25T15:37:37.064Z,12.64
2022-11-25T15:42:42.374Z,12.60
2022-11-25T15:47:45.125Z,12.59
2022-11-25T15:52:52.507Z,12.48
2022-11-25T15:57:56.307Z,12.41
2022-11-25T16:02:58.595Z,12.40
2022-11-25T16:08:16.619Z,12.35
2022-11-25T16:13:22.373Z,12.17
2022-11-25T16:18:40.410Z,12.02
2022-11-25T16:23:48.443Z,11.99
2022-11-25T16:28:53.489Z,11.92
2022-11-25T16:34:17.231Z,12.08
2022-11-25T16:39:19.106Z,12.10
2022-11-25T16:44:23.500Z,12.12
2022-11-25T16:49:25.536Z,12.17
2022-11-25T16:54:27.100Z,12.32
2022-11-25T16:59:42.598Z,12.22
2022-11-25T17:04:44.820Z,12.16
2022-11-25T17:09:46.718Z,12.12
2022-11-25T17:14:49.081Z,12.09
2022-11-25T17:19:51.400Z,11.99
2022-11-25T17:24:53.042Z,11.98
2022-11-25T17:29:57.278Z,12.03
2022-11-25T17:34:59.454Z,12.01
2022-11-25T17:40:01.495Z,11.93
2022-11-25T17:45:03.363Z,11.90
2022-11-25T17:50:22.659Z,11.92
2022-11-25T17:55:24.296Z,11.96
2022-11-25T18:00:25.943Z,12.00
2022-11-25T18:05:27.832Z,11.98
2022-11-25T18:10:29.593Z,11.99
2022-11-25T18:15:32.885Z,11.95
2022-11-25T18:20:34.764Z,11.95
2022-11-25T18:25:39.095Z,11.92
2022-11-25T18:30:40.794Z,11.85
2022-11-25T18:35:44.374Z,11.73
2022-11-25T18:40:51.880Z,11.67
2022-11-25T18:45:55.196Z,11.63
2022-11-25T18:50:57.101Z,11.62
2022-11-25T18:55:59.191Z,11.66
2022-11-25T19:01:11.031Z,11.61
2022-11-25T19:06:13.748Z,11.62
2022-11-25T19:11:49.526Z,11.60
2022-11-25T19:16:51.209Z,11.57
2022-11-25T19:21:52.874Z,11.51
2022-11-25T19:26:57.050Z,11.33
2022-11-25T19:32:00.717Z,11.28
2022-11-25T19:37:02.378Z,11.08
2022-11-25T19:42:03.979Z,10.97
2022-11-25T19:47:15.098Z,10.80
2022-11-25T19:52:30.984Z,10.55
2022-11-25T19:57:32.571Z,10.36
2022-11-25T20:02:34.287Z,10.50
2022-11-25T20:07:36.449Z,10.58
2022-11-25T20:12:38.135Z,10.45
2022-11-25T20:17:44.387Z,10.55
2022-11-25T20:23:00.534Z,10.49
2022-11-25T20:28:02.141Z,10.38
2022-11-25T20:33:03.824Z,10.27
2022-11-25T20:38:05.866Z,10.16
2022-11-25T20:43:20.269Z,10.42
2022-11-25T20:48:22.461Z,10.28
2022-11-25T20:53:24.071Z,10.25
2022-11-25T20:58:28.554Z,10.06
2022-11-25T21:03:30.218Z,10.05
2022-11-25T21:08:31.802Z,10.04
2022-11-25T21:13:33.487Z,9.98
2022-11-25T21:18:35.254Z,9.93
2022-11-25T21:23:37.841Z,9.74
2022-11-25T21:28:42.497Z,9.54
2022-11-25T21:33:46.233Z,9.53
2022-11-25T21:38:51.237Z,9.49
2022-11-25T21:43:52.931Z,9.41
2022-11-25T21:48:54.664Z,9.29
2022-11-25T21:53:56.370Z,9.27
2022-11-25T21:59:00.554Z,9.20
2022-11-25T22:04:02.121Z,9.10
2022-11-25T22:09:03.875Z,8.93
2022-11-25T22:14:12.806Z,8.70
2022-11-25T22:19:23.287Z,8.42
2022-11-25T22:24:25.171Z,8.33
2022-11-25T22:29:32.861Z,7.93
2022-11-25T22:34:34.496Z,7.71
2022-11-25T22:39:36.297Z,7.53
2022-11-25T22:44:42.211Z,7.29
2022-11-25T22:49:47.084Z,7.25
2022-11-25T22:54:49.331Z,7.55
2022-11-25T22:59:51.019Z,7.56
2022-11-25T23:04:55.177Z,7.77
2022-11-25T23:09:56.842Z,7.56
2022-11-25T23:14:58.397Z,7.27
2022-11-25T23:19:59.983Z,7.00
2022-11-25T23:25:02.141Z,6.80
2022-11-25T23:30:03.939Z,6.61
2022-11-25T23:35:06.084Z,6.44
2022-11-25T23:40:17.322Z,6.86
2022-11-25T23:45:21.651Z,7.28
2022-11-25T23:50:32.816Z,7.27
2022-11-25T23:55:37.219Z,7.09
